Disclaimer

Please do not use the information listed here in-flight or in-navigation, as they are not provided to us by the airports but are provided by volunteers, so they might be outdated.

Search


Regions


Airport information page

Radio informations:
Tower (TWR) - 120.15 MHz
ATHINAI APP - 119.1 MHz

Airport informations:
Latitude: 38° 03' 49.79" N
Longitude: 023° 33' 21.64" E
Elevation: 143 feet - 44 meters
Operating hours: From sunrise to sunset (SR-SS)
Operating agency: Military
Timezone: UTC+2(+3DT) - Last Sunday in March to last Sunday in October
Fuel: N/A

Runway information:
18/36 - 8985 x 131 feet< - >2739 x 40 meters

Recent METARs:
LGEL 151150Z 15012G22KT 9999 SCT020 BKN070 18/12 Q1014
LGEL 151220Z 15012KT 9999 SCT020 BKN070 18/12 Q1014
LGEL 151250Z 15009KT 9999 SCT020 BKN070 18/13 Q1014

Airport on the map: